Hayase Maru — JD2583 — position and weather

sailwx.info

Track history (hours):
 
Tides and Currents Weather Stations Pressure Air Temp Water Temp Dewpoint Dewpoint Depression Visibility Wind Speed Wind Dir Waves Ship Positions

Hayase Maru

Last reported at 2015-Apr-17 22:31 UTC. Time now 2015-Apr-21 21:06 UTC.
Position N 36°18' E 140°49'.

Length 73 m; draft 4 m.

Type: Ship. MMSI: 431000395.

Date/timePositionNaut miles runAvg speedWind from/ knotsBaromVisibWave heightAir tempDewpointWater temp
2015-Apr-17 22:31N 36°18' E 140°49'1212.2
2015-Apr-17 21:32N 36°07' E 140°45'1211.6
2015-Apr-17 20:33N 35°56' E 140°42'2 1.4
2015-Apr-17 19:21N 35°55' E 140°40'0 0.0
2015-Apr-17 18:21N 35°55' E 140°40'0 0.0
2015-Apr-17 16:15N 35°55' E 140°40'1 0.0
2015-Apr-16 16:31N 35°55' E 140°40'58 8.3
2015-Apr-16 09:33N 35°02' E 140°14'1612.8
2015-Apr-16 08:18N 34°53' E 139°58'1211.0
2015-Apr-16 07:10N 34°56' E 139°43'710.7
2015-Apr-16 06:33N 35°03' E 139°44'1110.7
2015-Apr-16 05:33N 35°13' E 139°46'1110.9
2015-Apr-16 04:33N 35°24' E 139°43'1211.6
2015-Apr-16 03:33N 35°31' E 139°54'9 8.9
2015-Apr-16 02:32N 35°35' E 140°04'0 0.0
2015-Apr-16 01:26N 35°35' E 140°04'0 0.0
2015-Apr-16 00:32N 35°35' E 140°04'0 0.0
2015-Apr-15 23:14N 35°35' E 140°04'0 0.0
2015-Apr-15 22:32N 35°35' E 140°04'0 0.0
2015-Apr-15 21:32N 35°35' E 140°04'0 0.0
2015-Apr-15 20:26N 35°35' E 140°04'0 0.0
2015-Apr-15 19:32N 35°35' E 140°04'0 0.0
2015-Apr-15 18:26N 35°35' E 140°04'0 0.0
2015-Apr-15 17:26N 35°35' E 140°04'0 0.0
2015-Apr-15 16:32N 35°35' E 140°04'0 0.0
2015-Apr-15 15:29N 35°35' E 140°04'0 0.0
2015-Apr-15 14:29N 35°35' E 140°04'0 0.0
2015-Apr-15 13:26N 35°35' E 140°04'0 0.0
2015-Apr-15 12:31N 35°35' E 140°04'0 0.0
2015-Apr-15 11:31N 35°35' E 140°04'0 0.0
2015-Apr-15 10:30N 35°35' E 140°04'0 0.0
2015-Apr-15 09:30N 35°35' E 140°04'0 0.0
2015-Apr-15 08:29N 35°35' E 140°04'0 0.0
2015-Apr-15 07:29N 35°35' E 140°04'0 0.0
2015-Apr-15 06:33N 35°35' E 140°04'2 1.9
2015-Apr-15 05:31N 35°37' E 140°05'0 0.0
2015-Apr-15 04:31N 35°37' E 140°05'0 0.0
2015-Apr-15 03:19N 35°37' E 140°05'0 0.0
2015-Apr-15 02:31N 35°37' E 140°05'0 0.0
2015-Apr-15 01:25N 35°37' E 140°05'0 0.0
2015-Apr-15 00:31N 35°37' E 140°05'0 0.0
2015-Apr-14 23:25N 35°37' E 140°05'0 0.0
2015-Apr-14 22:25N 35°37' E 140°05'0 0.0
2015-Apr-14 21:25N 35°37' E 140°05'0 0.0
2015-Apr-14 20:25N 35°37' E 140°05'0 0.0
2015-Apr-14 19:19N 35°37' E 140°05'0 0.0
2015-Apr-14 18:19N 35°37' E 140°05'0 0.0
2015-Apr-14 17:31N 35°37' E 140°05'0 0.0
2015-Apr-14 16:31N 35°37' E 140°05'0 0.0
2015-Apr-14 15:13N 35°37' E 140°05'0 0.0
2015-Apr-14 14:31N 35°37' E 140°05'0 0.0
2015-Apr-14 13:31N 35°37' E 140°05'0 0.0
2015-Apr-14 12:13N 35°37' E 140°05'0 0.0
2015-Apr-14 11:25N 35°37' E 140°05'0 0.0
2015-Apr-14 10:31N 35°37' E 140°05'0 0.0
2015-Apr-14 09:31N 35°37' E 140°05'0 0.0
2015-Apr-14 08:19N 35°37' E 140°05'0 0.0
2015-Apr-14 07:07N 35°37' E 140°05'0 0.0
2015-Apr-14 06:31N 35°37' E 140°05'0 0.0
2015-Apr-14 05:31N 35°37' E 140°05'0 0.0
2015-Apr-14 04:25N 35°37' E 140°05'0 0.0
2015-Apr-14 02:31N 35°37' E 140°05'0 0.0
2015-Apr-14 01:25N 35°37' E 140°05'0 0.0
2015-Apr-14 00:31N 35°37' E 140°05'0 0.0
2015-Apr-13 23:31N 35°37' E 140°05'0 0.0
2015-Apr-13 22:13N 35°37' E 140°05'0 0.0
2015-Apr-13 21:31N 35°37' E 140°05'0 0.0
2015-Apr-13 20:31N 35°37' E 140°05'0 0.0
2015-Apr-13 19:25N 35°37' E 140°05'0 0.0
2015-Apr-13 18:31N 35°37' E 140°05'0 0.0
2015-Apr-13 17:31N 35°37' E 140°05'0 0.0
2015-Apr-13 16:31N 35°37' E 140°05'0 0.0
2015-Apr-13 15:31N 35°37' E 140°05'0 0.0
2015-Apr-13 14:31N 35°37' E 140°05'0 0.0
2015-Apr-13 13:25N 35°37' E 140°05'0 0.0
2015-Apr-13 12:31N 35°37' E 140°05'0 0.0
2015-Apr-13 11:25N 35°37' E 140°05'0 0.0
2015-Apr-13 09:31N 35°37' E 140°05'0 0.0
2015-Apr-13 08:31N 35°37' E 140°05'0 0.0
2015-Apr-13 07:31N 35°37' E 140°05'0 0.0
2015-Apr-13 06:25N 35°37' E 140°05'0 0.0
2015-Apr-13 05:13N 35°37' E 140°05'0 0.0
2015-Apr-13 03:07N 35°37' E 140°05'0 0.0
2015-Apr-13 02:31N 35°37' E 140°05'0 0.0
2015-Apr-13 01:19N 35°37' E 140°05'0 0.0
2015-Apr-13 00:31N 35°37' E 140°05'0 0.0
2015-Apr-12 23:31N 35°37' E 140°05'2 1.7
2015-Apr-12 22:33N 35°35' E 140°04'1 0.5
2015-Apr-12 21:15N 35°35' E 140°04'0 0.1
2015-Apr-12 20:27N 35°35' E 140°04'0 0.1
2015-Apr-12 19:33N 35°35' E 140°04'0 0.0
2015-Apr-12 18:33N 35°35' E 140°04'0 0.0
2015-Apr-12 16:21N 35°35' E 140°04'0 0.0
2015-Apr-12 15:33N 35°35' E 140°04'0 0.0
2015-Apr-12 14:33N 35°35' E 140°04'0 0.0
2015-Apr-12 13:27N 35°35' E 140°04'0 0.0
2015-Apr-12 12:33N 35°35' E 140°04'0 0.0
2015-Apr-12 11:15N 35°35' E 140°04'0 0.0
2015-Apr-12 10:33N 35°35' E 140°04'0 0.0
2015-Apr-12 09:33N 35°35' E 140°04'0 0.0
2015-Apr-12 08:33N 35°35' E 140°04'0 0.0
2015-Apr-12 07:27N 35°35' E 140°04'0 0.0
2015-Apr-12 06:27N 35°35' E 140°04'0 0.0
2015-Apr-12 05:33N 35°35' E 140°04'0 0.0
2015-Apr-12 04:15N 35°35' E 140°04'0 0.0
2015-Apr-12 03:33N 35°35' E 140°04'0 0.0
2015-Apr-12 02:33N 35°35' E 140°04'0 0.0
2015-Apr-12 01:21N 35°35' E 140°04'0 0.0
2015-Apr-12 00:27N 35°35' E 140°04'4 4.5
2015-Apr-11 23:32N 35°33' E 139°59'1111.0
2015-Apr-11 22:32N 35°26' E 139°48'10 9.9
2015-Apr-11 21:34N 35°17' E 139°46'1010.4
2015-Apr-11 20:33N 35°06' E 139°45'6410.7
2015-Apr-11 14:32N 34°34' E 138°37'  
Track history (hours):
 
Tides and Currents Weather Stations Pressure Air Temp Water Temp Dewpoint Dewpoint Depression Visibility Wind Speed Wind Dir Waves Ship Positions

Hayase Maru

Last reported at 2015-Apr-17 22:31 UTC. Time now 2015-Apr-21 21:06 UTC.
Position N 36°18' E 140°49'.

Length 73 m; draft 4 m.

Type: Ship. MMSI: 431000395.

Date/timePositionNaut miles runAvg speedWind from/ knotsBaromVisibWave heightAir tempDewpointWater temp
2015-Apr-17 22:31N 36°18' E 140°49'1212.2
2015-Apr-17 21:32N 36°07' E 140°45'1211.6
2015-Apr-17 20:33N 35°56' E 140°42'2 1.4
2015-Apr-17 19:21N 35°55' E 140°40'0 0.0
2015-Apr-17 18:21N 35°55' E 140°40'0 0.0
2015-Apr-17 16:15N 35°55' E 140°40'1 0.0
2015-Apr-16 16:31N 35°55' E 140°40'58 8.3
2015-Apr-16 09:33N 35°02' E 140°14'1612.8
2015-Apr-16 08:18N 34°53' E 139°58'1211.0
2015-Apr-16 07:10N 34°56' E 139°43'710.7
2015-Apr-16 06:33N 35°03' E 139°44'1110.7
2015-Apr-16 05:33N 35°13' E 139°46'1110.9
2015-Apr-16 04:33N 35°24' E 139°43'1211.6
2015-Apr-16 03:33N 35°31' E 139°54'9 8.9
2015-Apr-16 02:32N 35°35' E 140°04'0 0.0
2015-Apr-16 01:26N 35°35' E 140°04'0 0.0
2015-Apr-16 00:32N 35°35' E 140°04'0 0.0
2015-Apr-15 23:14N 35°35' E 140°04'0 0.0
2015-Apr-15 22:32N 35°35' E 140°04'0 0.0
2015-Apr-15 21:32N 35°35' E 140°04'0 0.0
2015-Apr-15 20:26N 35°35' E 140°04'0 0.0
2015-Apr-15 19:32N 35°35' E 140°04'0 0.0
2015-Apr-15 18:26N 35°35' E 140°04'0 0.0
2015-Apr-15 17:26N 35°35' E 140°04'0 0.0
2015-Apr-15 16:32N 35°35' E 140°04'0 0.0
2015-Apr-15 15:29N 35°35' E 140°04'0 0.0
2015-Apr-15 14:29N 35°35' E 140°04'0 0.0
2015-Apr-15 13:26N 35°35' E 140°04'0 0.0
2015-Apr-15 12:31N 35°35' E 140°04'0 0.0
2015-Apr-15 11:31N 35°35' E 140°04'0 0.0
2015-Apr-15 10:30N 35°35' E 140°04'0 0.0
2015-Apr-15 09:30N 35°35' E 140°04'0 0.0
2015-Apr-15 08:29N 35°35' E 140°04'0 0.0
2015-Apr-15 07:29N 35°35' E 140°04'0 0.0
2015-Apr-15 06:33N 35°35' E 140°04'2 1.9
2015-Apr-15 05:31N 35°37' E 140°05'0 0.0
2015-Apr-15 04:31N 35°37' E 140°05'0 0.0
2015-Apr-15 03:19N 35°37' E 140°05'0 0.0
2015-Apr-15 02:31N 35°37' E 140°05'0 0.0
2015-Apr-15 01:25N 35°37' E 140°05'0 0.0
2015-Apr-15 00:31N 35°37' E 140°05'0 0.0
2015-Apr-14 23:25N 35°37' E 140°05'0 0.0
2015-Apr-14 22:25N 35°37' E 140°05'0 0.0
2015-Apr-14 21:25N 35°37' E 140°05'0 0.0
2015-Apr-14 20:25N 35°37' E 140°05'0 0.0
2015-Apr-14 19:19N 35°37' E 140°05'0 0.0
2015-Apr-14 18:19N 35°37' E 140°05'0 0.0
2015-Apr-14 17:31N 35°37' E 140°05'0 0.0
2015-Apr-14 16:31N 35°37' E 140°05'0 0.0
2015-Apr-14 15:13N 35°37' E 140°05'0 0.0
2015-Apr-14 14:31N 35°37' E 140°05'0 0.0
2015-Apr-14 13:31N 35°37' E 140°05'0 0.0
2015-Apr-14 12:13N 35°37' E 140°05'0 0.0
2015-Apr-14 11:25N 35°37' E 140°05'0 0.0
2015-Apr-14 10:31N 35°37' E 140°05'0 0.0
2015-Apr-14 09:31N 35°37' E 140°05'0 0.0
2015-Apr-14 08:19N 35°37' E 140°05'0 0.0
2015-Apr-14 07:07N 35°37' E 140°05'0 0.0
2015-Apr-14 06:31N 35°37' E 140°05'0 0.0
2015-Apr-14 05:31N 35°37' E 140°05'0 0.0
2015-Apr-14 04:25N 35°37' E 140°05'0 0.0
2015-Apr-14 02:31N 35°37' E 140°05'0 0.0
2015-Apr-14 01:25N 35°37' E 140°05'0 0.0
2015-Apr-14 00:31N 35°37' E 140°05'0 0.0
2015-Apr-13 23:31N 35°37' E 140°05'0 0.0
2015-Apr-13 22:13N 35°37' E 140°05'0 0.0
2015-Apr-13 21:31N 35°37' E 140°05'0 0.0
2015-Apr-13 20:31N 35°37' E 140°05'0 0.0
2015-Apr-13 19:25N 35°37' E 140°05'0 0.0
2015-Apr-13 18:31N 35°37' E 140°05'0 0.0
2015-Apr-13 17:31N 35°37' E 140°05'0 0.0
2015-Apr-13 16:31N 35°37' E 140°05'0 0.0
2015-Apr-13 15:31N 35°37' E 140°05'0 0.0
2015-Apr-13 14:31N 35°37' E 140°05'0 0.0
2015-Apr-13 13:25N 35°37' E 140°05'0 0.0
2015-Apr-13 12:31N 35°37' E 140°05'0 0.0
2015-Apr-13 11:25N 35°37' E 140°05'0 0.0
2015-Apr-13 09:31N 35°37' E 140°05'0 0.0
2015-Apr-13 08:31N 35°37' E 140°05'0 0.0
2015-Apr-13 07:31N 35°37' E 140°05'0 0.0
2015-Apr-13 06:25N 35°37' E 140°05'0 0.0
2015-Apr-13 05:13N 35°37' E 140°05'0 0.0
2015-Apr-13 03:07N 35°37' E 140°05'0 0.0
2015-Apr-13 02:31N 35°37' E 140°05'0 0.0
2015-Apr-13 01:19N 35°37' E 140°05'0 0.0
2015-Apr-13 00:31N 35°37' E 140°05'0 0.0
2015-Apr-12 23:31N 35°37' E 140°05'2 1.7
2015-Apr-12 22:33N 35°35' E 140°04'1 0.5
2015-Apr-12 21:15N 35°35' E 140°04'0 0.1
2015-Apr-12 20:27N 35°35' E 140°04'0 0.1
2015-Apr-12 19:33N 35°35' E 140°04'0 0.0
2015-Apr-12 18:33N 35°35' E 140°04'0 0.0
2015-Apr-12 16:21N 35°35' E 140°04'0 0.0
2015-Apr-12 15:33N 35°35' E 140°04'0 0.0
2015-Apr-12 14:33N 35°35' E 140°04'0 0.0
2015-Apr-12 13:27N 35°35' E 140°04'0 0.0
2015-Apr-12 12:33N 35°35' E 140°04'0 0.0
2015-Apr-12 11:15N 35°35' E 140°04'0 0.0
2015-Apr-12 10:33N 35°35' E 140°04'0 0.0
2015-Apr-12 09:33N 35°35' E 140°04'0 0.0
2015-Apr-12 08:33N 35°35' E 140°04'0 0.0
2015-Apr-12 07:27N 35°35' E 140°04'0 0.0
2015-Apr-12 06:27N 35°35' E 140°04'0 0.0
2015-Apr-12 05:33N 35°35' E 140°04'0 0.0
2015-Apr-12 04:15N 35°35' E 140°04'0 0.0
2015-Apr-12 03:33N 35°35' E 140°04'0 0.0
2015-Apr-12 02:33N 35°35' E 140°04'0 0.0
2015-Apr-12 01:21N 35°35' E 140°04'0 0.0
2015-Apr-12 00:27N 35°35' E 140°04'4 4.5
2015-Apr-11 23:32N 35°33' E 139°59'1111.0
2015-Apr-11 22:32N 35°26' E 139°48'10 9.9
2015-Apr-11 21:34N 35°17' E 139°46'1010.4
2015-Apr-11 20:33N 35°06' E 139°45'6410.7
2015-Apr-11 14:32N 34°34' E 138°37'  

Dump ship's entire track history